Here is the Quick Look data you requested

The Data originates at the National Weather Service, and is made available here by the UAlbany Department of Atmospheric and Environmental Sciences

Surface Observations

PHBK 171556Z AUTO 00000KT 10SM FEW060 22/16 A3003 RMK AO2 SLP172 T02220161=
PHHI 171558Z AUTO 04006KT 10SM FEW037 22/18 A3004 RMK AO2 SLP164 T02200175 $=
PHJH 171600Z 04013G24KT 15SM SCT030 24/16 A3002=
PHJR 171553Z 06011G18KT CLR 24/16 A3003 RMK AO2 SLP174 T02440156 $=
PHKO 171553Z AUTO 01004KT 10SM FEW038 BKN050 24/14 A2993 RMK AO2 SLP136
 T02440139 TSNO=
PHLI 171553Z 06019KT 10SM SCT028 SCT036 25/21 A3007 RMK AO2 PK WND 08027/1514
 SLP180 P0001 T02500206=
PHMK 171554Z 05014G24KT 10SM SCT033 BKN043 BKN055 24/18 A3004 RMK AO2 PK WND
 06027/1501 SLP173 T02390178 $=
PHNG 171557Z 07013G22KT 7SM FEW026 SCT044 26/18 A3002 RMK SLP160 T02610183=
PHNL 171553Z 06017G22KT 10SM FEW029 FEW045 SCT055 25/17 A3002 RMK AO2 SLP166
 T02500167=
PHNY 171556Z AUTO 06022G31KT 10SM FEW028 21/16 A3003 RMK AO2 PK WND 05034/1525
 SLP150 T02110161=
PHOG 171554Z 05012KT 10SM FEW035 24/18 A3002 RMK AO2 SLP171 T02390183=
PHSF 171556Z AUTO 13005KT 10SM FEW080 07/05 A3028 RMK AO2 SLP161 WND DATA ESTMD
 T00740049 $=
PHTO 171553Z AUTO 03010KT 10SM SCT036 BKN047 BKN060 24/18 A3003 RMK AO2 SLP168
 T02390178 TSNO=
PMDY 171556Z AUTO 10009KT 7SM SCT013 BKN024 OVC049 24/23 A3016 RMK AO2 RAB11E56
 SLP213 P0000 T02440228=